sensor_id;sensor_type;location;lat;lon;timestamp;pressure;altitude;pressure_sealevel;temperature;humidity
23619;BME280;18207;32.078;34.818;2023-07-16T00:02:06;100037.72;;;33.11;51.13
23619;BME280;18207;32.078;34.818;2023-07-16T00:04:38;100041.81;;;33.10;51.12
23619;BME280;18207;32.078;34.818;2023-07-16T00:07:08;100035.72;;;33.08;50.57
23619;BME280;18207;32.078;34.818;2023-07-16T00:09:39;100041.03;;;33.06;50.79
23619;BME280;18207;32.078;34.818;2023-07-16T00:12:10;100030.09;;;33.04;51.04
23619;BME280;18207;32.078;34.818;2023-07-16T00:14:40;100029.31;;;33.04;51.32
23619;BME280;18207;32.078;34.818;2023-07-16T00:17:11;100025.28;;;33.01;51.22
23619;BME280;18207;32.078;34.818;2023-07-16T00:19:43;100033.03;;;33.01;51.18
23619;BME280;18207;32.078;34.818;2023-07-16T00:22:13;100029.81;;;32.99;50.87
23619;BME280;18207;32.078;34.818;2023-07-16T00:24:44;100027.41;;;32.97;51.32
23619;BME280;18207;32.078;34.818;2023-07-16T00:27:15;100024.56;;;32.97;51.34
23619;BME280;18207;32.078;34.818;2023-07-16T00:29:45;100023.75;;;32.97;51.34
23619;BME280;18207;32.078;34.818;2023-07-16T00:32:15;100027.03;;;32.95;50.79
23619;BME280;18207;32.078;34.818;2023-07-16T00:34:47;100016.09;;;32.94;51.46
23619;BME280;18207;32.078;34.818;2023-07-16T00:37:17;100025.88;;;32.93;50.98
23619;BME280;18207;32.078;34.818;2023-07-16T00:39:47;100029.50;;;32.93;51.46
23619;BME280;18207;32.078;34.818;2023-07-16T00:42:18;100019.34;;;32.92;50.81
23619;BME280;18207;32.078;34.818;2023-07-16T00:44:48;100023.88;;;32.90;50.88
23619;BME280;18207;32.078;34.818;2023-07-16T00:47:19;100022.28;;;32.89;51.43
23619;BME280;18207;32.078;34.818;2023-07-16T00:49:52;100024.34;;;32.88;50.93
23619;BME280;18207;32.078;34.818;2023-07-16T00:52:23;100013.81;;;32.85;51.31
23619;BME280;18207;32.078;34.818;2023-07-16T00:54:53;100017.09;;;32.84;51.22
23619;BME280;18207;32.078;34.818;2023-07-16T00:57:24;100014.25;;;32.84;51.35
23619;BME280;18207;32.078;34.818;2023-07-16T00:59:53;100013.88;;;32.82;51.42
23619;BME280;18207;32.078;34.818;2023-07-16T01:02:25;100017.16;;;32.80;51.14
23619;BME280;18207;32.078;34.818;2023-07-16T01:04:58;100013.59;;;32.76;50.93
23619;BME280;18207;32.078;34.818;2023-07-16T01:07:31;100011.59;;;32.73;51.59
23619;BME280;18207;32.078;34.818;2023-07-16T01:10:02;100017.75;;;32.72;51.58
23619;BME280;18207;32.078;34.818;2023-07-16T01:12:34;100012.47;;;32.70;51.36
23619;BME280;18207;32.078;34.818;2023-07-16T01:15:06;100007.59;;;32.71;51.04
23619;BME280;18207;32.078;34.818;2023-07-16T01:17:37;100010.88;;;32.69;51.63
23619;BME280;18207;32.078;34.818;2023-07-16T01:20:11;100016.56;;;32.69;51.44
23619;BME280;18207;32.078;34.818;2023-07-16T01:23:39;100012.97;;;32.65;51.48
23619;BME280;18207;32.078;34.818;2023-07-16T01:26:43;100007.78;;;32.60;51.01
23619;BME280;18207;32.078;34.818;2023-07-16T01:29:33;100016.75;;;32.59;51.53
23619;BME280;18207;32.078;34.818;2023-07-16T01:32:07;100015.56;;;32.56;51.72
23619;BME280;18207;32.078;34.818;2023-07-16T01:34:39;100008.25;;;32.55;51.73
23619;BME280;18207;32.078;34.818;2023-07-16T01:37:10;100017.66;;;32.52;50.96
23619;BME280;18207;32.078;34.818;2023-07-16T01:39:42;100014.44;;;32.50;51.23
23619;BME280;18207;32.078;34.818;2023-07-16T01:42:12;100012.84;;;32.49;50.99
23619;BME280;18207;32.078;34.818;2023-07-16T01:44:44;100022.19;;;32.50;50.96
23619;BME280;18207;32.078;34.818;2023-07-16T01:47:24;100019.34;;;32.50;51.35
23619;BME280;18207;32.078;34.818;2023-07-16T01:50:00;100023.03;;;32.47;51.25
23619;BME280;18207;32.078;34.818;2023-07-16T01:52:31;100024.72;;;32.44;51.45
23619;BME280;18207;32.078;34.818;2023-07-16T01:55:01;100034.09;;;32.45;51.15
23619;BME280;18207;32.078;34.818;2023-07-16T01:57:32;100034.88;;;32.45;51.05
23619;BME280;18207;32.078;34.818;2023-07-16T02:00:05;100028.38;;;32.45;51.00
23619;BME280;18207;32.078;34.818;2023-07-16T02:02:36;100024.72;;;32.44;51.25
23619;BME280;18207;32.078;34.818;2023-07-16T02:05:07;100025.16;;;32.43;51.50
23619;BME280;18207;32.078;34.818;2023-07-16T02:07:38;100037.34;;;32.43;50.97
23619;BME280;18207;32.078;34.818;2023-07-16T02:10:09;100034.50;;;32.43;51.43
23619;BME280;18207;32.078;34.818;2023-07-16T02:12:39;100030.84;;;32.43;51.72
23619;BME280;18207;32.078;34.818;2023-07-16T02:15:12;100034.50;;;32.43;51.50
23619;BME280;18207;32.078;34.818;2023-07-16T02:17:42;100031.28;;;32.41;50.90
23619;BME280;18207;32.078;34.818;2023-07-16T02:20:12;100030.47;;;32.41;51.17
23619;BME280;18207;32.078;34.818;2023-07-16T02:22:42;100028.06;;;32.39;51.37
23619;BME280;18207;32.078;34.818;2023-07-16T02:25:13;100022.81;;;32.38;51.61
23619;BME280;18207;32.078;34.818;2023-07-16T02:27:44;100036.31;;;32.34;51.40
23619;BME280;18207;32.078;34.818;2023-07-16T02:30:16;100037.53;;;32.33;51.35
23619;BME280;18207;32.078;34.818;2023-07-16T02:32:46;100029.00;;;32.33;51.43
23619;BME280;18207;32.078;34.818;2023-07-16T02:35:16;100033.88;;;32.32;50.98
23619;BME280;18207;32.078;34.818;2023-07-16T02:37:47;100041.63;;;32.32;50.89
23619;BME280;18207;32.078;34.818;2023-07-16T02:40:18;100048.16;;;32.29;51.32
23619;BME280;18207;32.078;34.818;2023-07-16T02:42:47;100053.47;;;32.27;50.96
23619;BME280;18207;32.078;34.818;2023-07-16T02:45:19;100047.44;;;32.25;50.93
23619;BME280;18207;32.078;34.818;2023-07-16T02:47:50;100040.53;;;32.22;51.76
23619;BME280;18207;32.078;34.818;2023-07-16T02:50:21;100047.47;;;32.22;51.57
23619;BME280;18207;32.078;34.818;2023-07-16T02:52:51;100048.34;;;32.19;51.06
23619;BME280;18207;32.078;34.818;2023-07-16T02:55:21;100042.72;;;32.15;51.54
23619;BME280;18207;32.078;34.818;2023-07-16T02:57:52;100040.28;;;32.14;51.59
23619;BME280;18207;32.078;34.818;2023-07-16T03:00:24;100050.06;;;32.13;51.59
23619;BME280;18207;32.078;34.818;2023-07-16T03:02:54;100052.56;;;32.11;51.07
23619;BME280;18207;32.078;34.818;2023-07-16T03:05:27;100052.97;;;32.09;51.76
23619;BME280;18207;32.078;34.818;2023-07-16T03:08:00;100049.31;;;32.09;51.77
23619;BME280;18207;32.078;34.818;2023-07-16T03:10:31;100047.31;;;32.06;51.15
23619;BME280;18207;32.078;34.818;2023-07-16T03:13:01;100052.22;;;32.02;51.28
23619;BME280;18207;32.078;34.818;2023-07-16T03:15:33;100057.13;;;32.01;51.36
23619;BME280;18207;32.078;34.818;2023-07-16T03:18:04;100055.13;;;31.98;51.30
23619;BME280;18207;32.078;34.818;2023-07-16T03:20:34;100052.72;;;31.97;51.26
23619;BME280;18207;32.078;34.818;2023-07-16T03:23:05;100055.19;;;31.95;51.43
23619;BME280;18207;32.078;34.818;2023-07-16T03:25:35;100051.56;;;31.94;51.26
23619;BME280;18207;32.078;34.818;2023-07-16T03:28:05;100052.78;;;31.93;51.88
23619;BME280;18207;32.078;34.818;2023-07-16T03:30:37;100053.59;;;31.94;51.98
23619;BME280;18207;32.078;34.818;2023-07-16T03:33:08;100051.56;;;31.94;52.06
23619;BME280;18207;32.078;34.818;2023-07-16T03:35:39;100058.03;;;31.95;51.35
23619;BME280;18207;32.078;34.818;2023-07-16T03:38:09;100054.81;;;31.93;52.00
23619;BME280;18207;32.078;34.818;2023-07-16T03:40:41;100047.50;;;31.92;52.14
23619;BME280;18207;32.078;34.818;2023-07-16T03:43:12;100057.31;;;31.91;51.58
23619;BME280;18207;32.078;34.818;2023-07-16T03:45:45;100058.53;;;31.90;51.69
23619;BME280;18207;32.078;34.818;2023-07-16T03:48:15;100062.59;;;31.89;51.67
23619;BME280;18207;32.078;34.818;2023-07-16T03:50:47;100059.75;;;31.89;52.27
23619;BME280;18207;32.078;34.818;2023-07-16T03:53:17;100057.72;;;31.89;51.62
23619;BME280;18207;32.078;34.818;2023-07-16T03:55:47;100061.78;;;31.88;52.16
23619;BME280;18207;32.078;34.818;2023-07-16T03:58:17;100066.25;;;31.89;51.58
23619;BME280;18207;32.078;34.818;2023-07-16T04:00:49;100066.63;;;31.91;51.79
23619;BME280;18207;32.078;34.818;2023-07-16T04:03:20;100065.84;;;31.91;52.05
23619;BME280;18207;32.078;34.818;2023-07-16T04:05:52;100064.16;;;31.93;52.15
23619;BME280;18207;32.078;34.818;2023-07-16T04:08:22;100065.78;;;31.94;52.04
23619;BME280;18207;32.078;34.818;2023-07-16T04:10:52;100072.25;;;31.95;52.29
23619;BME280;18207;32.078;34.818;2023-07-16T04:13:23;100079.13;;;31.97;52.41
23619;BME280;18207;32.078;34.818;2023-07-16T04:15:56;100070.56;;;32.01;51.95
23619;BME280;18207;32.078;34.818;2023-07-16T04:18:26;100070.91;;;32.03;52.52
23619;BME280;18207;32.078;34.818;2023-07-16T04:20:56;100071.66;;;32.07;52.53
23619;BME280;18207;32.078;34.818;2023-07-16T04:23:27;100073.69;;;32.10;52.65
23619;BME280;18207;32.078;34.818;2023-07-16T04:25:57;100075.66;;;32.13;52.52
23619;BME280;18207;32.078;34.818;2023-07-16T04:28:27;100067.88;;;32.17;51.99
23619;BME280;18207;32.078;34.818;2023-07-16T04:31:00;100082.88;;;32.21;51.93
23619;BME280;18207;32.078;34.818;2023-07-16T04:33:30;100077.13;;;32.24;52.42
23619;BME280;18207;32.078;34.818;2023-07-16T04:36:01;100078.28;;;32.26;52.14
23619;BME280;18207;32.078;34.818;2023-07-16T04:38:32;100070.13;;;32.28;52.15
23619;BME280;18207;32.078;34.818;2023-07-16T04:41:02;100078.59;;;32.32;52.38
23619;BME280;18207;32.078;34.818;2023-07-16T04:43:32;100080.16;;;32.36;51.94
23619;BME280;18207;32.078;34.818;2023-07-16T04:46:05;100072.38;;;32.40;52.61
23619;BME280;18207;32.078;34.818;2023-07-16T04:48:35;100071.88;;;32.45;52.11
23619;BME280;18207;32.078;34.818;2023-07-16T04:51:06;100076.69;;;32.48;52.37
23619;BME280;18207;32.078;34.818;2023-07-16T04:53:36;100071.72;;;32.52;52.64
23619;BME280;18207;32.078;34.818;2023-07-16T04:56:12;100068.41;;;32.57;52.79
23619;BME280;18207;32.078;34.818;2023-07-16T04:58:43;100072.44;;;32.60;52.59
23619;BME280;18207;32.078;34.818;2023-07-16T05:01:15;100076.84;;;32.64;52.47
23619;BME280;18207;32.078;34.818;2023-07-16T05:03:45;100077.22;;;32.66;52.89
23619;BME280;18207;32.078;34.818;2023-07-16T05:06:16;100073.91;;;32.68;52.77
23619;BME280;18207;32.078;34.818;2023-07-16T05:08:46;100074.75;;;32.68;52.24
23619;BME280;18207;32.078;34.818;2023-07-16T05:11:16;100080.78;;;32.70;52.31
23619;BME280;18207;32.078;34.818;2023-07-16T05:13:47;100073.44;;;32.73;52.17
23619;BME280;18207;32.078;34.818;2023-07-16T05:16:18;100064.84;;;32.76;52.43
23619;BME280;18207;32.078;34.818;2023-07-16T05:18:48;100063.53;;;32.81;52.95
23619;BME280;18207;32.078;34.818;2023-07-16T05:21:18;100067.91;;;32.85;52.26
23619;BME280;18207;32.078;34.818;2023-07-16T05:23:49;100067.03;;;32.88;52.52
23619;BME280;18207;32.078;34.818;2023-07-16T05:26:19;100071.06;;;32.91;52.17
23619;BME280;18207;32.078;34.818;2023-07-16T05:28:49;100064.91;;;32.92;52.42
23619;BME280;18207;32.078;34.818;2023-07-16T05:31:21;100062.81;;;32.96;52.31
23619;BME280;18207;32.078;34.818;2023-07-16T05:33:52;100058.28;;;32.99;52.58
23619;BME280;18207;32.078;34.818;2023-07-16T05:36:22;100067.13;;;33.04;52.64
23619;BME280;18207;32.078;34.818;2023-07-16T05:38:53;100065.41;;;33.10;52.17
23619;BME280;18207;32.078;34.818;2023-07-16T05:41:22;100066.16;;;33.14;52.42
23619;BME280;18207;32.078;34.818;2023-07-16T05:43:53;100061.53;;;33.20;52.08
23619;BME280;18207;32.078;34.818;2023-07-16T05:46:40;100058.63;;;33.23;52.48
23619;BME280;18207;32.078;34.818;2023-07-16T05:49:10;100058.97;;;33.25;52.47
23619;BME280;18207;32.078;34.818;2023-07-16T05:51:41;100065.41;;;33.29;52.50
23619;BME280;18207;32.078;34.818;2023-07-16T05:54:11;100064.09;;;33.34;51.98
23619;BME280;18207;32.078;34.818;2023-07-16T05:56:42;100059.13;;;33.38;52.36
23619;BME280;18207;32.078;34.818;2023-07-16T05:59:11;100071.69;;;33.40;52.45
23619;BME280;18207;32.078;34.818;2023-07-16T06:01:44;100065.09;;;33.43;52.34
23619;BME280;18207;32.078;34.818;2023-07-16T06:04:14;100075.63;;;33.46;52.11
23619;BME280;18207;32.078;34.818;2023-07-16T06:06:44;100060.06;;;33.51;51.62
23619;BME280;18207;32.078;34.818;2023-07-16T06:09:17;100058.72;;;33.55;51.60
23619;BME280;18207;32.078;34.818;2023-07-16T06:11:47;100068.44;;;33.61;51.52
23619;BME280;18207;32.078;34.818;2023-07-16T06:14:17;100066.66;;;33.67;51.56
23619;BME280;18207;32.078;34.818;2023-07-16T06:16:51;100068.53;;;33.74;51.35
23619;BME280;18207;32.078;34.818;2023-07-16T06:19:21;100070.84;;;33.79;51.79
23619;BME280;18207;32.078;34.818;2023-07-16T06:21:52;100066.69;;;33.83;51.48
23619;BME280;18207;32.078;34.818;2023-07-16T06:24:22;100073.47;;;33.89;51.04
23619;BME280;18207;32.078;34.818;2023-07-16T06:26:52;100060.75;;;33.94;51.69
23619;BME280;18207;32.078;34.818;2023-07-16T06:29:22;100057.34;;;33.99;51.09
23619;BME280;18207;32.078;34.818;2023-07-16T06:32:10;100058.44;;;34.04;51.50
23619;BME280;18207;32.078;34.818;2023-07-16T06:34:40;100057.16;;;34.09;51.52
23619;BME280;18207;32.078;34.818;2023-07-16T06:37:10;100059.44;;;34.14;51.32
23619;BME280;18207;32.078;34.818;2023-07-16T06:39:40;100048.31;;;34.19;51.26
23619;BME280;18207;32.078;34.818;2023-07-16T06:42:11;100046.53;;;34.25;50.55
23619;BME280;18207;32.078;34.818;2023-07-16T06:44:41;100046.81;;;34.31;50.86
23619;BME280;18207;32.078;34.818;2023-07-16T06:47:14;100050.72;;;34.37;50.90
23619;BME280;18207;32.078;34.818;2023-07-16T06:49:44;100052.25;;;34.41;50.84
23619;BME280;18207;32.078;34.818;2023-07-16T06:52:21;100050.91;;;34.46;50.76
23619;BME280;18207;32.078;34.818;2023-07-16T06:54:52;100046.69;;;34.50;50.69
23619;BME280;18207;32.078;34.818;2023-07-16T06:57:23;100057.59;;;34.55;50.05
23619;BME280;18207;32.078;34.818;2023-07-16T06:59:54;100048.50;;;34.60;50.57
23619;BME280;18207;32.078;34.818;2023-07-16T07:02:26;100050.81;;;34.65;49.85
23619;BME280;18207;32.078;34.818;2023-07-16T07:04:57;100054.38;;;34.69;50.12
23619;BME280;18207;32.078;34.818;2023-07-16T07:07:27;100049.75;;;34.75;50.37
23619;BME280;18207;32.078;34.818;2023-07-16T07:09:57;100055.69;;;34.81;49.98
23619;BME280;18207;32.078;34.818;2023-07-16T07:12:28;100065.31;;;34.87;49.63
23619;BME280;18207;32.078;34.818;2023-07-16T07:14:58;100060.31;;;34.91;49.95
23619;BME280;18207;32.078;34.818;2023-07-16T07:17:31;100056.13;;;34.95;49.62
23619;BME280;18207;32.078;34.818;2023-07-16T07:20:02;100051.44;;;35.01;49.47
23619;BME280;18207;32.078;34.818;2023-07-16T07:22:32;100048.53;;;35.04;49.16
23619;BME280;18207;32.078;34.818;2023-07-16T07:25:03;100049.56;;;35.10;49.65
23619;BME280;18207;32.078;34.818;2023-07-16T07:27:34;100050.63;;;35.16;49.68
23619;BME280;18207;32.078;34.818;2023-07-16T07:30:06;100047.66;;;35.20;49.34
23619;BME280;18207;32.078;34.818;2023-07-16T07:32:38;100055.66;;;35.25;49.66
23619;BME280;18207;32.078;34.818;2023-07-16T07:35:09;100053.53;;;35.29;49.59
23619;BME280;18207;32.078;34.818;2023-07-16T07:37:40;100061.56;;;35.34;49.49
23619;BME280;18207;32.078;34.818;2023-07-16T07:40:11;100058.59;;;35.37;49.21
23619;BME280;18207;32.078;34.818;2023-07-16T07:42:41;100073.13;;;35.43;49.83
23619;BME280;18207;32.078;34.818;2023-07-16T07:45:12;100049.69;;;35.48;49.81
23619;BME280;18207;32.078;34.818;2023-07-16T07:47:44;100054.06;;;35.52;49.77
23619;BME280;18207;32.078;34.818;2023-07-16T07:50:15;100054.78;;;35.56;49.49
23619;BME280;18207;32.078;34.818;2023-07-16T07:52:45;100062.41;;;35.59;49.87
23619;BME280;18207;32.078;34.818;2023-07-16T07:55:15;100061.88;;;35.64;49.20
23619;BME280;18207;32.078;34.818;2023-07-16T07:57:45;100057.28;;;35.67;49.72
23619;BME280;18207;32.078;34.818;2023-07-16T08:00:16;100058.78;;;35.71;48.96
23619;BME280;18207;32.078;34.818;2023-07-16T08:02:47;100050.09;;;35.75;49.69
23619;BME280;18207;32.078;34.818;2023-07-16T08:05:18;100050.78;;;35.79;48.94
23619;BME280;18207;32.078;34.818;2023-07-16T08:07:49;100057.66;;;35.81;49.61
23619;BME280;18207;32.078;34.818;2023-07-16T08:10:20;100062.00;;;35.85;49.52
23619;BME280;18207;32.078;34.818;2023-07-16T08:12:52;100056.16;;;35.89;49.62
23619;BME280;18207;32.078;34.818;2023-07-16T08:15:22;100058.59;;;35.90;49.51
23619;BME280;18207;32.078;34.818;2023-07-16T08:17:54;100055.16;;;35.95;49.16
23619;BME280;18207;32.078;34.818;2023-07-16T08:20:27;100052.19;;;35.99;49.29
23619;BME280;18207;32.078;34.818;2023-07-16T08:22:58;100046.38;;;36.02;49.40
23619;BME280;18207;32.078;34.818;2023-07-16T08:25:28;100051.16;;;36.05;48.91
23619;BME280;18207;32.078;34.818;2023-07-16T08:27:59;100054.03;;;36.05;48.22
23619;BME280;18207;32.078;34.818;2023-07-16T08:30:30;100044.66;;;36.05;48.44
23619;BME280;18207;32.078;34.818;2023-07-16T08:33:02;100046.25;;;36.06;48.80
23619;BME280;18207;32.078;34.818;2023-07-16T08:35:34;100051.53;;;36.07;48.18
23619;BME280;18207;32.078;34.818;2023-07-16T08:38:04;100053.13;;;36.08;48.33
23619;BME280;18207;32.078;34.818;2023-07-16T08:40:38;100043.28;;;36.09;48.17
23619;BME280;18207;32.078;34.818;2023-07-16T08:43:09;100038.34;;;36.10;47.99
23619;BME280;18207;32.078;34.818;2023-07-16T08:45:42;100047.41;;;36.08;47.81
23619;BME280;18207;32.078;34.818;2023-07-16T08:48:17;100046.56;;;36.08;47.77
23619;BME280;18207;32.078;34.818;2023-07-16T08:50:48;100054.03;;;36.05;47.92
23619;BME280;18207;32.078;34.818;2023-07-16T08:53:19;100048.78;;;36.04;47.53
23619;BME280;18207;32.078;34.818;2023-07-16T08:55:50;100046.03;;;36.00;47.02
23619;BME280;18207;32.078;34.818;2023-07-16T08:58:24;100042.81;;;35.98;47.51
23619;BME280;18207;32.078;34.818;2023-07-16T09:01:05;100043.59;;;35.99;47.66
23619;BME280;18207;32.078;34.818;2023-07-16T09:03:39;100048.06;;;36.00;46.88
23619;BME280;18207;32.078;34.818;2023-07-16T09:06:09;100044.88;;;35.98;47.21
23619;BME280;18207;32.078;34.818;2023-07-16T09:08:40;100048.97;;;35.97;47.29
23619;BME280;18207;32.078;34.818;2023-07-16T09:11:12;100047.38;;;35.96;46.88
23619;BME280;18207;32.078;34.818;2023-07-16T09:13:47;100041.31;;;35.94;46.76
23619;BME280;18207;32.078;34.818;2023-07-16T09:16:19;100044.94;;;35.94;46.35
23619;BME280;18207;32.078;34.818;2023-07-16T09:18:51;100051.94;;;35.93;46.96
23619;BME280;18207;32.078;34.818;2023-07-16T09:21:21;100039.22;;;35.94;47.14
23619;BME280;18207;32.078;34.818;2023-07-16T09:23:52;100036.38;;;35.94;46.70
23619;BME280;18207;32.078;34.818;2023-07-16T09:26:23;100035.59;;;35.94;47.13
23619;BME280;18207;32.078;34.818;2023-07-16T09:28:53;100033.50;;;35.94;46.55
23619;BME280;18207;32.078;34.818;2023-07-16T09:31:23;100036.38;;;35.94;46.33
23619;BME280;18207;32.078;34.818;2023-07-16T09:33:58;100032.72;;;35.94;47.00
23619;BME280;18207;32.078;34.818;2023-07-16T09:36:28;100042.56;;;35.93;47.06
23619;BME280;18207;32.078;34.818;2023-07-16T09:38:59;100040.94;;;35.92;46.85
23619;BME280;18207;32.078;34.818;2023-07-16T09:41:31;100033.63;;;35.91;46.41
23619;BME280;18207;32.078;34.818;2023-07-16T09:44:01;100039.34;;;35.91;46.27
23619;BME280;18207;32.078;34.818;2023-07-16T09:46:32;100032.84;;;35.90;46.26
23619;BME280;18207;32.078;34.818;2023-07-16T09:49:05;100038.56;;;35.90;46.54
23619;BME280;18207;32.078;34.818;2023-07-16T09:51:37;100035.34;;;35.88;45.85
23619;BME280;18207;32.078;34.818;2023-07-16T09:54:08;100032.97;;;35.87;46.61
23619;BME280;18207;32.078;34.818;2023-07-16T09:56:47;100032.97;;;35.87;46.55
23619;BME280;18207;32.078;34.818;2023-07-16T09:59:23;100025.63;;;35.86;46.00
23619;BME280;18207;32.078;34.818;2023-07-16T10:01:55;100030.53;;;35.85;46.40
23619;BME280;18207;32.078;34.818;2023-07-16T10:04:38;100021.94;;;35.85;45.94
23619;BME280;18207;32.078;34.818;2023-07-16T10:07:21;100022.78;;;35.86;46.25
23619;BME280;18207;32.078;34.818;2023-07-16T10:09:53;100023.13;;;35.88;45.81
23619;BME280;18207;32.078;34.818;2023-07-16T10:12:26;100027.91;;;35.91;45.82
23619;BME280;18207;32.078;34.818;2023-07-16T10:14:56;100019.31;;;35.91;46.03
23619;BME280;18207;32.078;34.818;2023-07-16T10:17:27;100025.38;;;35.93;46.13
23619;BME280;18207;32.078;34.818;2023-07-16T10:20:01;100020.38;;;35.97;45.58
23619;BME280;18207;32.078;34.818;2023-07-16T10:22:39;100023.56;;;35.99;45.96
23619;BME280;18207;32.078;34.818;2023-07-16T10:25:24;100021.53;;;35.99;45.88
23619;BME280;18207;32.078;34.818;2023-07-16T10:27:56;100017.84;;;35.99;45.38
23619;BME280;18207;32.078;34.818;2023-07-16T10:30:26;100016.25;;;35.98;45.49
23619;BME280;18207;32.078;34.818;2023-07-16T10:32:56;100020.38;;;35.97;45.83
23619;BME280;18207;32.078;34.818;2023-07-16T10:35:30;100016.34;;;35.94;44.89
23619;BME280;18207;32.078;34.818;2023-07-16T10:38:00;100010.63;;;35.94;44.97
23619;BME280;18207;32.078;34.818;2023-07-16T10:40:30;100009.81;;;35.94;45.40
23619;BME280;18207;32.078;34.818;2023-07-16T10:43:01;100010.97;;;35.96;44.95
23619;BME280;18207;32.078;34.818;2023-07-16T10:45:32;100014.66;;;35.97;45.20
23619;BME280;18207;32.078;34.818;2023-07-16T10:48:02;100005.97;;;36.00;45.37
23619;BME280;18207;32.078;34.818;2023-07-16T10:50:35;100011.09;;;36.05;45.09
23619;BME280;18207;32.078;34.818;2023-07-16T10:53:07;100005.25;;;36.09;45.40
23619;BME280;18207;32.078;34.818;2023-07-16T10:55:37;100013.41;;;36.10;45.41
23619;BME280;18207;32.078;34.818;2023-07-16T10:58:07;100010.88;;;36.12;44.94
23619;BME280;18207;32.078;34.818;2023-07-16T11:00:40;100014.19;;;36.11;45.32
23619;BME280;18207;32.078;34.818;2023-07-16T11:03:10;100011.44;;;36.07;44.67
23619;BME280;18207;32.078;34.818;2023-07-16T11:05:46;100004.13;;;36.06;45.07
23619;BME280;18207;32.078;34.818;2023-07-16T11:08:22;100018.91;;;36.05;45.04
23619;BME280;18207;32.078;34.818;2023-07-16T11:10:57;100014.91;;;36.02;44.70
23619;BME280;18207;32.078;34.818;2023-07-16T11:13:28;100016.16;;;36.01;44.98
23619;BME280;18207;32.078;34.818;2023-07-16T11:16:07;100002.63;;;36.02;44.42
23619;BME280;18207;32.078;34.818;2023-07-16T11:18:38;100007.09;;;36.03;44.88
23619;BME280;18207;32.078;34.818;2023-07-16T11:21:10;100007.44;;;36.05;44.45
23619;BME280;18207;32.078;34.818;2023-07-16T11:23:40;100004.25;;;36.03;44.13
23619;BME280;18207;32.078;34.818;2023-07-16T11:26:11;99998.53;;;36.03;44.57
23619;BME280;18207;32.078;34.818;2023-07-16T11:28:42;100002.50;;;36.05;44.23
23619;BME280;18207;32.078;34.818;2023-07-16T11:31:14;99998.88;;;36.05;43.96
23619;BME280;18207;32.078;34.818;2023-07-16T11:33:45;100001.72;;;36.05;44.12
23619;BME280;18207;32.078;34.818;2023-07-16T11:36:18;100010.31;;;36.05;44.04
23619;BME280;18207;32.078;34.818;2023-07-16T11:38:49;100012.03;;;36.02;44.08
23619;BME280;18207;32.078;34.818;2023-07-16T11:41:21;100007.56;;;36.01;44.00
23619;BME280;18207;32.078;34.818;2023-07-16T11:43:51;100008.84;;;36.00;44.30
23619;BME280;18207;32.078;34.818;2023-07-16T11:46:23;100008.47;;;35.98;43.91
23619;BME280;18207;32.078;34.818;2023-07-16T11:48:53;100012.59;;;35.97;44.22
23619;BME280;18207;32.078;34.818;2023-07-16T11:51:26;100010.53;;;35.98;44.20
23619;BME280;18207;32.078;34.818;2023-07-16T11:53:57;100001.59;;;35.96;43.81
23619;BME280;18207;32.078;34.818;2023-07-16T11:56:27;100008.56;;;35.95;43.72
23619;BME280;18207;32.078;34.818;2023-07-16T11:58:57;100000.78;;;35.95;43.49
23619;BME280;18207;32.078;34.818;2023-07-16T12:01:27;100003.63;;;35.95;44.08
23619;BME280;18207;32.078;34.818;2023-07-16T12:03:57;100003.19;;;35.97;43.73
23619;BME280;18207;32.078;34.818;2023-07-16T12:06:30;100014.66;;;35.97;43.34
23619;BME280;18207;32.078;34.818;2023-07-16T12:09:00;100010.19;;;35.96;43.66
23619;BME280;18207;32.078;34.818;2023-07-16T12:11:31;100012.22;;;35.95;43.65
23619;BME280;18207;32.078;34.818;2023-07-16T12:14:02;100007.75;;;35.94;43.62
23619;BME280;18207;32.078;34.818;2023-07-16T12:16:32;100015.56;;;35.94;43.44
23619;BME280;18207;32.078;34.818;2023-07-16T12:19:03;100015.19;;;35.92;43.66
23619;BME280;18207;32.078;34.818;2023-07-16T12:21:36;100009.94;;;35.90;43.06
23619;BME280;18207;32.078;34.818;2023-07-16T12:24:06;100005.13;;;35.87;43.22
23619;BME280;18207;32.078;34.818;2023-07-16T12:26:37;100015.44;;;35.85;42.94
23619;BME280;18207;32.078;34.818;2023-07-16T12:29:07;100014.31;;;35.83;43.20
23619;BME280;18207;32.078;34.818;2023-07-16T12:31:37;100019.69;;;35.81;43.20
23619;BME280;18207;32.078;34.818;2023-07-16T12:34:07;100013.59;;;35.79;43.60
23619;BME280;18207;32.078;34.818;2023-07-16T12:36:40;100013.59;;;35.79;43.47
23619;BME280;18207;32.078;34.818;2023-07-16T12:39:10;100010.41;;;35.77;43.43
23619;BME280;18207;32.078;34.818;2023-07-16T12:41:43;100007.19;;;35.75;43.10
23619;BME280;18207;32.078;34.818;2023-07-16T12:44:14;100007.66;;;35.73;43.04
23619;BME280;18207;32.078;34.818;2023-07-16T12:46:44;100006.03;;;35.72;43.24
23619;BME280;18207;32.078;34.818;2023-07-16T12:49:15;100004.00;;;35.73;42.96
23619;BME280;18207;32.078;34.818;2023-07-16T12:51:47;100011.75;;;35.72;43.04
23619;BME280;18207;32.078;34.818;2023-07-16T12:54:18;100004.78;;;35.73;43.42
23619;BME280;18207;32.078;34.818;2023-07-16T12:56:49;99999.41;;;35.75;43.62
23619;BME280;18207;32.078;34.818;2023-07-16T12:59:19;100007.09;;;35.78;43.98
23619;BME280;18207;32.078;34.818;2023-07-16T13:01:49;99996.78;;;35.81;43.82
23619;BME280;18207;32.078;34.818;2023-07-16T13:04:19;100000.00;;;35.83;43.33